Woody Richerson — WDF9621 — position and weather

sailwx.info

Track history (hours):
 
Tides and Currents Weather Stations Pressure Air Temp Water Temp Dewpoint Dewpoint Depression Visibility Wind Speed Wind Dir Waves Ship Positions

Woody Richerson

Owner: Florida Marine, LLC, Mandeville, LA. More information available from US FCC via Universal Licensing System and Coast Guard Vessel Documentation Center.

Last reported at 2017-Jul-25 09:02 UTC. Time now 2017-Jul-27 06:50 UTC.
Position N 29°33' W 090°24'.

Length 27 m; draft 2.9 m.

Type: Other ship. MMSI: 367507070.

Date/timePositionNaut miles runAvg speedWind from/ knotsBaromVisibWave heightAir tempDewpointWater temp
2017-Jul-25 09:02N 29°33' W 090°24'0 5.4
2017-Jul-25 09:00N 29°33' W 090°24'3 6.6
2017-Jul-25 08:30N 29°33' W 090°28'3 6.6
2017-Jul-25 08:00N 29°34' W 090°32'3 6.3
2017-Jul-25 07:30N 29°35' W 090°35'3 6.1
2017-Jul-25 07:00N 29°35' W 090°39'3 5.6
2017-Jul-25 06:30N 29°37' W 090°42'2 3.6
2017-Jul-25 06:00N 29°35' W 090°43'2 3.4
2017-Jul-25 05:30N 29°34' W 090°44'3 5.7
2017-Jul-25 05:00N 29°32' W 090°47'4 7.1
2017-Jul-25 04:30N 29°32' W 090°51'3 6.4
2017-Jul-25 03:59N 29°33' W 090°54'114 5.0
2017-Jul-24 05:14N 29°56' W 093°03'2 6.0
2017-Jul-24 04:57N 29°56' W 093°05'3 5.8
2017-Jul-24 04:30N 29°56' W 093°08'3 5.2
2017-Jul-24 04:00N 29°57' W 093°11'3 5.6
2017-Jul-24 03:30N 29°59' W 093°13'3 5.3
2017-Jul-24 03:00N 30°02' W 093°14'2 4.0
2017-Jul-24 02:30N 30°03' W 093°16'3 5.3
2017-Jul-24 02:00N 30°05' W 093°18'1 1.8
2017-Jul-24 01:30N 30°06' W 093°18'0 0.1
2017-Jul-24 01:00N 30°06' W 093°18'0 0.0
2017-Jul-24 00:30N 30°06' W 093°18'0 0.6
2017-Jul-24 00:00N 30°06' W 093°18'0 0.8
2017-Jul-23 23:30N 30°06' W 093°19'3 5.7
2017-Jul-23 23:00N 30°04' W 093°21'3 5.7
2017-Jul-23 22:30N 30°04' W 093°24'3 6.1
2017-Jul-23 22:00N 30°04' W 093°28'3 5.6
2017-Jul-23 21:30N 30°04' W 093°31'0 0.5
2017-Jul-23 21:00N 30°04' W 093°31'3 5.7
2017-Jul-23 20:30N 30°04' W 093°35'6 6.0
2017-Jul-23 19:27N 30°03' W 093°42'70 5.4
2017-Jul-23 06:35N 29°29' W 094°52'1 7.9
2017-Jul-23 06:30N 29°30' W 094°52'4 7.7
2017-Jul-23 06:00N 29°33' W 094°54'4 7.6
2017-Jul-23 05:30N 29°36' W 094°57'4 7.9
2017-Jul-23 05:00N 29°40' W 094°58'4 7.6
2017-Jul-23 04:30N 29°42' W 095°01'4 7.0
2017-Jul-23 03:59N 29°45' W 095°04'2 3.6
2017-Jul-23 03:23N 29°46' W 095°06'0 0.8
2017-Jul-23 02:51N 29°46' W 095°06'1 3.9
2017-Jul-23 02:30N 29°45' W 095°06'2 0.2
2017-Jul-22 16:42N 29°44' W 095°08'3 0.1
2017-Jul-20 15:03N 29°46' W 095°05'0 0.0
2017-Jul-19 23:11N 29°46' W 095°05'0 2.1
2017-Jul-19 22:59N 29°46' W 095°06'0 0.0
2017-Jul-19 13:41N 29°46' W 095°06'2 1.3
2017-Jul-19 11:51N 29°47' W 095°04'2 4.1
2017-Jul-19 11:26N 29°46' W 095°05'1 0.4
2017-Jul-19 07:39N 29°47' W 095°06'0 0.0
2017-Jul-19 07:25N 29°47' W 095°06'1 0.3
2017-Jul-19 04:57N 29°46' W 095°06'1 1.3
2017-Jul-19 04:26N 29°46' W 095°05'1 2.1
2017-Jul-19 04:00N 29°46' W 095°04'2 4.4
2017-Jul-19 03:30N 29°44' W 095°03'3 5.4
2017-Jul-19 03:00N 29°42' W 095°01'3 6.1
2017-Jul-19 02:30N 29°40' W 094°58'4 7.1
2017-Jul-19 01:59N 29°36' W 094°57'3 7.1
2017-Jul-19 01:30N 29°33' W 094°55'69 4.8
2017-Jul-18 11:15N 30°03' W 093°44'2 5.3
2017-Jul-18 10:57N 30°04' W 093°42'3 5.6
2017-Jul-18 10:30N 30°04' W 093°39'3 5.3
2017-Jul-18 10:00N 30°04' W 093°36'3 5.2
2017-Jul-18 09:30N 30°04' W 093°33'3 5.1
2017-Jul-18 09:00N 30°04' W 093°30'3 5.2
2017-Jul-18 08:30N 30°04' W 093°27'2 5.0
2017-Jul-18 08:00N 30°04' W 093°24'2 4.8
2017-Jul-18 07:30N 30°04' W 093°21'2 4.9
2017-Jul-18 07:00N 30°06' W 093°19'2 3.9
2017-Jul-18 06:30N 30°05' W 093°17'2 4.8
2017-Jul-18 06:00N 30°03' W 093°16'2 4.8
2017-Jul-18 05:30N 30°01' W 093°14'3 5.4
2017-Jul-18 05:00N 29°59' W 093°12'3 5.8
2017-Jul-18 04:30N 29°57' W 093°10'3 5.3
2017-Jul-18 04:00N 29°56' W 093°07'3 5.4
2017-Jul-18 03:30N 29°56' W 093°04'37 5.2
2017-Jul-17 20:15N 29°51' W 092°21'1 5.0
2017-Jul-17 20:00N 29°51' W 092°20'2 4.6
2017-Jul-17 19:30N 29°50' W 092°18'2 4.9
2017-Jul-17 19:00N 29°48' W 092°15'3 5.3
2017-Jul-17 18:30N 29°47' W 092°12'1 2.8
2017-Jul-17 18:00N 29°47' W 092°11'2 4.5
2017-Jul-17 17:30N 29°47' W 092°08'2 4.7
2017-Jul-17 17:00N 29°48' W 092°06'3 5.5
2017-Jul-17 16:30N 29°49' W 092°03'2 3.5
2017-Jul-17 16:00N 29°49' W 092°01'56 4.9
2017-Jul-17 04:35N 29°36' W 090°58'1 5.5
2017-Jul-17 04:24N 29°35' W 090°58'2 5.8
2017-Jul-17 03:59N 29°34' W 090°55'5 5.8
2017-Jul-17 03:11N 29°32' W 090°50'1 5.9
2017-Jul-17 02:58N 29°32' W 090°49'3 5.6
2017-Jul-17 02:30N 29°32' W 090°46'1 2.9
2017-Jul-17 02:00N 29°33' W 090°45'2 4.1
2017-Jul-17 01:30N 29°35' W 090°43'2 4.6
2017-Jul-17 01:00N 29°37' W 090°42'2 4.1
2017-Jul-17 00:30N 29°36' W 090°40'2 5.0
2017-Jul-17 00:00N 29°35' W 090°38'2 4.8
2017-Jul-16 23:30N 29°34' W 090°35'3 5.0
2017-Jul-16 23:00N 29°34' W 090°32'  
Track history (hours):
 
Tides and Currents Weather Stations Pressure Air Temp Water Temp Dewpoint Dewpoint Depression Visibility Wind Speed Wind Dir Waves Ship Positions

Woody Richerson

Owner: Florida Marine, LLC, Mandeville, LA. More information available from US FCC via Universal Licensing System and Coast Guard Vessel Documentation Center.

Last reported at 2017-Jul-25 09:02 UTC. Time now 2017-Jul-27 06:50 UTC.
Position N 29°33' W 090°24'.

Length 27 m; draft 2.9 m.

Type: Other ship. MMSI: 367507070.

Date/timePositionNaut miles runAvg speedWind from/ knotsBaromVisibWave heightAir tempDewpointWater temp
2017-Jul-25 09:02N 29°33' W 090°24'0 5.4
2017-Jul-25 09:00N 29°33' W 090°24'3 6.6
2017-Jul-25 08:30N 29°33' W 090°28'3 6.6
2017-Jul-25 08:00N 29°34' W 090°32'3 6.3
2017-Jul-25 07:30N 29°35' W 090°35'3 6.1
2017-Jul-25 07:00N 29°35' W 090°39'3 5.6
2017-Jul-25 06:30N 29°37' W 090°42'2 3.6
2017-Jul-25 06:00N 29°35' W 090°43'2 3.4
2017-Jul-25 05:30N 29°34' W 090°44'3 5.7
2017-Jul-25 05:00N 29°32' W 090°47'4 7.1
2017-Jul-25 04:30N 29°32' W 090°51'3 6.4
2017-Jul-25 03:59N 29°33' W 090°54'114 5.0
2017-Jul-24 05:14N 29°56' W 093°03'2 6.0
2017-Jul-24 04:57N 29°56' W 093°05'3 5.8
2017-Jul-24 04:30N 29°56' W 093°08'3 5.2
2017-Jul-24 04:00N 29°57' W 093°11'3 5.6
2017-Jul-24 03:30N 29°59' W 093°13'3 5.3
2017-Jul-24 03:00N 30°02' W 093°14'2 4.0
2017-Jul-24 02:30N 30°03' W 093°16'3 5.3
2017-Jul-24 02:00N 30°05' W 093°18'1 1.8
2017-Jul-24 01:30N 30°06' W 093°18'0 0.1
2017-Jul-24 01:00N 30°06' W 093°18'0 0.0
2017-Jul-24 00:30N 30°06' W 093°18'0 0.6
2017-Jul-24 00:00N 30°06' W 093°18'0 0.8
2017-Jul-23 23:30N 30°06' W 093°19'3 5.7
2017-Jul-23 23:00N 30°04' W 093°21'3 5.7
2017-Jul-23 22:30N 30°04' W 093°24'3 6.1
2017-Jul-23 22:00N 30°04' W 093°28'3 5.6
2017-Jul-23 21:30N 30°04' W 093°31'0 0.5
2017-Jul-23 21:00N 30°04' W 093°31'3 5.7
2017-Jul-23 20:30N 30°04' W 093°35'6 6.0
2017-Jul-23 19:27N 30°03' W 093°42'70 5.4
2017-Jul-23 06:35N 29°29' W 094°52'1 7.9
2017-Jul-23 06:30N 29°30' W 094°52'4 7.7
2017-Jul-23 06:00N 29°33' W 094°54'4 7.6
2017-Jul-23 05:30N 29°36' W 094°57'4 7.9
2017-Jul-23 05:00N 29°40' W 094°58'4 7.6
2017-Jul-23 04:30N 29°42' W 095°01'4 7.0
2017-Jul-23 03:59N 29°45' W 095°04'2 3.6
2017-Jul-23 03:23N 29°46' W 095°06'0 0.8
2017-Jul-23 02:51N 29°46' W 095°06'1 3.9
2017-Jul-23 02:30N 29°45' W 095°06'2 0.2
2017-Jul-22 16:42N 29°44' W 095°08'3 0.1
2017-Jul-20 15:03N 29°46' W 095°05'0 0.0
2017-Jul-19 23:11N 29°46' W 095°05'0 2.1
2017-Jul-19 22:59N 29°46' W 095°06'0 0.0
2017-Jul-19 13:41N 29°46' W 095°06'2 1.3
2017-Jul-19 11:51N 29°47' W 095°04'2 4.1
2017-Jul-19 11:26N 29°46' W 095°05'1 0.4
2017-Jul-19 07:39N 29°47' W 095°06'0 0.0
2017-Jul-19 07:25N 29°47' W 095°06'1 0.3
2017-Jul-19 04:57N 29°46' W 095°06'1 1.3
2017-Jul-19 04:26N 29°46' W 095°05'1 2.1
2017-Jul-19 04:00N 29°46' W 095°04'2 4.4
2017-Jul-19 03:30N 29°44' W 095°03'3 5.4
2017-Jul-19 03:00N 29°42' W 095°01'3 6.1
2017-Jul-19 02:30N 29°40' W 094°58'4 7.1
2017-Jul-19 01:59N 29°36' W 094°57'3 7.1
2017-Jul-19 01:30N 29°33' W 094°55'69 4.8
2017-Jul-18 11:15N 30°03' W 093°44'2 5.3
2017-Jul-18 10:57N 30°04' W 093°42'3 5.6
2017-Jul-18 10:30N 30°04' W 093°39'3 5.3
2017-Jul-18 10:00N 30°04' W 093°36'3 5.2
2017-Jul-18 09:30N 30°04' W 093°33'3 5.1
2017-Jul-18 09:00N 30°04' W 093°30'3 5.2
2017-Jul-18 08:30N 30°04' W 093°27'2 5.0
2017-Jul-18 08:00N 30°04' W 093°24'2 4.8
2017-Jul-18 07:30N 30°04' W 093°21'2 4.9
2017-Jul-18 07:00N 30°06' W 093°19'2 3.9
2017-Jul-18 06:30N 30°05' W 093°17'2 4.8
2017-Jul-18 06:00N 30°03' W 093°16'2 4.8
2017-Jul-18 05:30N 30°01' W 093°14'3 5.4
2017-Jul-18 05:00N 29°59' W 093°12'3 5.8
2017-Jul-18 04:30N 29°57' W 093°10'3 5.3
2017-Jul-18 04:00N 29°56' W 093°07'3 5.4
2017-Jul-18 03:30N 29°56' W 093°04'37 5.2
2017-Jul-17 20:15N 29°51' W 092°21'1 5.0
2017-Jul-17 20:00N 29°51' W 092°20'2 4.6
2017-Jul-17 19:30N 29°50' W 092°18'2 4.9
2017-Jul-17 19:00N 29°48' W 092°15'3 5.3
2017-Jul-17 18:30N 29°47' W 092°12'1 2.8
2017-Jul-17 18:00N 29°47' W 092°11'2 4.5
2017-Jul-17 17:30N 29°47' W 092°08'2 4.7
2017-Jul-17 17:00N 29°48' W 092°06'3 5.5
2017-Jul-17 16:30N 29°49' W 092°03'2 3.5
2017-Jul-17 16:00N 29°49' W 092°01'56 4.9
2017-Jul-17 04:35N 29°36' W 090°58'1 5.5
2017-Jul-17 04:24N 29°35' W 090°58'2 5.8
2017-Jul-17 03:59N 29°34' W 090°55'5 5.8
2017-Jul-17 03:11N 29°32' W 090°50'1 5.9
2017-Jul-17 02:58N 29°32' W 090°49'3 5.6
2017-Jul-17 02:30N 29°32' W 090°46'1 2.9
2017-Jul-17 02:00N 29°33' W 090°45'2 4.1
2017-Jul-17 01:30N 29°35' W 090°43'2 4.6
2017-Jul-17 01:00N 29°37' W 090°42'2 4.1
2017-Jul-17 00:30N 29°36' W 090°40'2 5.0
2017-Jul-17 00:00N 29°35' W 090°38'2 4.8
2017-Jul-16 23:30N 29°34' W 090°35'3 5.0
2017-Jul-16 23:00N 29°34' W 090°32'  

Dump ship's entire track history